createdAt,value
2023-05-08T00:02:12.618Z,99.90
2023-05-08T00:04:39.592Z,99.90
2023-05-08T00:07:08.281Z,99.90
2023-05-08T00:09:35.189Z,99.90
2023-05-08T00:12:01.927Z,99.90
2023-05-08T00:14:28.947Z,99.90
2023-05-08T00:16:55.855Z,99.90
2023-05-08T00:19:22.812Z,99.90
2023-05-08T00:21:49.666Z,99.90
2023-05-08T00:24:18.013Z,99.90
2023-05-08T00:26:44.830Z,99.90
2023-05-08T00:29:11.745Z,99.90
2023-05-08T00:31:38.727Z,99.90
2023-05-08T00:34:05.596Z,99.90
2023-05-08T00:36:32.533Z,99.90
2023-05-08T00:39:00.076Z,99.90
2023-05-08T00:41:28.833Z,99.90
2023-05-08T00:43:55.993Z,99.90
2023-05-08T00:46:23.109Z,99.90
2023-05-08T00:48:50.245Z,99.90
2023-05-08T00:51:17.506Z,99.90
2023-05-08T00:53:44.935Z,99.90
2023-05-08T00:56:13.688Z,99.90
2023-05-08T00:58:43.561Z,99.90
2023-05-08T01:01:11.393Z,99.90
2023-05-08T01:03:38.632Z,99.90
2023-05-08T01:06:06.412Z,99.90
2023-05-08T01:08:33.295Z,99.90
2023-05-08T01:11:11.808Z,99.90
2023-05-08T01:13:50.804Z,99.90
2023-05-08T01:16:22.775Z,99.90
2023-05-08T01:18:54.449Z,99.90
2023-05-08T01:21:28.256Z,99.90
2023-05-08T01:24:13.562Z,99.90
2023-05-08T01:26:55.771Z,99.90
2023-05-08T01:29:55.184Z,99.90
2023-05-08T01:32:26.361Z,99.90
2023-05-08T01:35:00.730Z,99.90
2023-05-08T01:37:37.685Z,99.90
2023-05-08T01:40:12.869Z,99.90
2023-05-08T01:42:46.530Z,99.90
2023-05-08T01:45:19.618Z,99.90
2023-05-08T01:47:56.019Z,99.90
2023-05-08T01:50:30.956Z,99.90
2023-05-08T01:53:02.170Z,99.90
2023-05-08T01:55:34.403Z,99.90
2023-05-08T01:58:03.510Z,99.90
2023-05-08T02:00:30.791Z,99.90
2023-05-08T02:03:00.407Z,99.90
2023-05-08T02:05:28.380Z,99.90
2023-05-08T02:07:56.436Z,99.90
2023-05-08T02:10:25.183Z,99.90
2023-05-08T02:12:53.780Z,99.90
2023-05-08T02:15:22.080Z,99.90
2023-05-08T02:17:50.499Z,99.90
2023-05-08T02:20:20.338Z,99.90
2023-05-08T02:22:51.315Z,99.90
2023-05-08T02:25:19.630Z,99.90
2023-05-08T02:27:50.696Z,99.90
2023-05-08T02:30:19.360Z,99.90
2023-05-08T02:32:49.657Z,99.90
2023-05-08T02:35:20.061Z,99.90
2023-05-08T02:37:52.588Z,99.90
2023-05-08T02:40:22.619Z,99.90
2023-05-08T02:42:50.266Z,99.90
2023-05-08T02:45:17.801Z,99.90
2023-05-08T02:47:52.977Z,99.90
2023-05-08T02:50:27.528Z,99.90
2023-05-08T02:53:01.433Z,99.90
2023-05-08T02:55:35.662Z,99.90
2023-05-08T02:58:18.535Z,99.90
2023-05-08T03:00:52.426Z,99.90
2023-05-08T03:03:21.259Z,99.90
2023-05-08T03:05:52.531Z,99.90
2023-05-08T03:08:23.951Z,99.90
2023-05-08T03:10:54.151Z,99.90
2023-05-08T03:13:21.457Z,99.90
2023-05-08T03:15:55.127Z,99.90
2023-05-08T03:18:26.381Z,99.90
2023-05-08T03:20:56.289Z,99.90
2023-05-08T03:23:25.870Z,99.90
2023-05-08T03:25:53.643Z,99.90
2023-05-08T03:28:21.765Z,99.90
2023-05-08T03:30:49.582Z,99.90
2023-05-08T03:33:17.537Z,99.90
2023-05-08T03:35:46.182Z,99.90
2023-05-08T03:38:14.774Z,99.90
2023-05-08T03:40:41.935Z,99.90
2023-05-08T03:43:09.688Z,99.90
2023-05-08T03:45:39.326Z,99.90
2023-05-08T03:48:08.057Z,99.90
2023-05-08T03:50:36.665Z,99.90
2023-05-08T03:53:04.168Z,99.90
2023-05-08T03:55:32.891Z,99.90
2023-05-08T03:58:05.637Z,99.90
2023-05-08T04:00:43.279Z,99.90
2023-05-08T04:03:21.414Z,99.90
2023-05-08T04:05:56.977Z,99.90
2023-05-08T04:08:28.751Z,99.90
2023-05-08T04:11:04.551Z,99.90
2023-05-08T04:13:35.888Z,99.90
2023-05-08T04:16:07.468Z,99.90
2023-05-08T04:18:38.113Z,99.90
2023-05-08T04:21:10.912Z,99.90
2023-05-08T04:23:40.482Z,99.90
2023-05-08T04:26:10.711Z,99.90
2023-05-08T04:28:38.197Z,99.90
2023-05-08T04:31:05.756Z,99.90
2023-05-08T04:36:16.009Z,99.90
2023-05-08T04:38:43.740Z,99.90
2023-05-08T04:41:12.922Z,99.90
2023-05-08T04:43:39.940Z,99.90
2023-05-08T04:46:07.151Z,99.90
2023-05-08T04:48:34.797Z,99.90
2023-05-08T04:51:01.826Z,99.90
2023-05-08T04:53:29.145Z,99.90
2023-05-08T04:55:56.983Z,99.90
2023-05-08T04:58:25.371Z,99.90
2023-05-08T05:00:53.202Z,99.90
2023-05-08T05:03:20.623Z,99.90
2023-05-08T05:08:41.704Z,99.90
2023-05-08T05:11:09.520Z,99.90
2023-05-08T05:13:39.731Z,99.90
2023-05-08T05:16:07.794Z,99.90
2023-05-08T05:18:35.425Z,99.90
2023-05-08T05:21:03.984Z,99.90
2023-05-08T05:23:32.771Z,99.90
2023-05-08T05:26:00.568Z,99.90
2023-05-08T05:28:27.573Z,99.90
2023-05-08T05:30:57.023Z,99.90
2023-05-08T05:33:25.498Z,99.90
2023-05-08T05:35:53.470Z,99.90
2023-05-08T05:38:20.776Z,99.90
2023-05-08T05:40:47.977Z,99.90
2023-05-08T05:43:15.774Z,99.90
2023-05-08T05:45:43.005Z,99.90
2023-05-08T05:48:12.069Z,99.90
2023-05-08T05:50:40.129Z,99.90
2023-05-08T05:53:07.941Z,99.90
2023-05-08T06:01:00.395Z,99.90
2023-05-08T06:03:32.225Z,99.90
2023-05-08T06:06:00.250Z,99.90
2023-05-08T06:08:28.198Z,99.90
2023-05-08T06:10:57.025Z,99.90
2023-05-08T06:13:24.816Z,99.90
2023-05-08T06:15:53.858Z,99.90
2023-05-08T06:18:21.186Z,99.90
2023-05-08T06:21:01.345Z,99.90
2023-05-08T06:23:29.584Z,99.90
2023-05-08T06:25:57.465Z,99.90
2023-05-08T06:28:32.570Z,99.90
2023-05-08T06:31:00.292Z,99.90
2023-05-08T06:33:39.092Z,99.90
2023-05-08T06:36:08.389Z,99.90
2023-05-08T06:38:35.547Z,99.90
2023-05-08T06:41:02.669Z,99.90
2023-05-08T06:43:40.622Z,99.90
2023-05-08T06:46:09.890Z,99.90
2023-05-08T06:57:03.346Z,99.90
2023-05-08T07:02:17.536Z,98.70
2023-05-08T07:10:37.582Z,96.70
2023-05-08T07:13:04.704Z,96.20
2023-05-08T07:15:32.241Z,96.30
2023-05-08T07:23:22.492Z,95.40
2023-05-08T07:28:35.796Z,94.60
2023-05-08T07:31:17.223Z,93.50
2023-05-08T07:33:48.524Z,92.80
2023-05-08T07:36:18.740Z,92.10
2023-05-08T07:41:32.825Z,91.10
2023-05-08T07:44:01.603Z,90.70
2023-05-08T07:46:36.421Z,90.60
2023-05-08T07:49:03.896Z,90.40
2023-05-08T07:51:31.173Z,90.00
2023-05-08T07:54:01.039Z,89.60
2023-05-08T07:56:34.458Z,88.00
2023-05-08T07:59:03.382Z,86.50
2023-05-08T08:06:57.393Z,83.40
2023-05-08T08:09:26.822Z,81.80
2023-05-08T08:11:59.984Z,81.50
2023-05-08T08:17:16.366Z,79.30
2023-05-08T08:19:47.400Z,78.70
2023-05-08T08:22:16.212Z,77.70
2023-05-08T08:27:42.863Z,77.00
2023-05-08T08:35:33.818Z,75.00
2023-05-08T08:43:49.288Z,71.50
2023-05-08T08:46:20.750Z,71.30
2023-05-08T08:48:51.255Z,71.00
2023-05-08T08:51:25.794Z,69.90
2023-05-08T08:59:38.456Z,68.30
2023-05-08T09:02:10.089Z,68.50
2023-05-08T09:04:37.739Z,68.20
2023-05-08T09:07:04.926Z,67.80
2023-05-08T09:09:33.504Z,67.60
2023-05-08T09:12:00.460Z,67.20
2023-05-08T09:14:29.630Z,67.20
2023-05-08T09:16:56.690Z,66.90
2023-05-08T09:19:36.244Z,66.90
2023-05-08T09:24:57.153Z,66.40
2023-05-08T09:27:27.092Z,66.00
2023-05-08T09:30:04.790Z,65.70
2023-05-08T09:32:37.712Z,65.60
2023-05-08T09:35:06.631Z,65.00
2023-05-08T09:37:35.108Z,65.10
2023-05-08T09:40:19.127Z,64.90
2023-05-08T09:42:46.557Z,64.50
2023-05-08T09:45:29.008Z,64.70
2023-05-08T09:47:58.586Z,64.50
2023-05-08T09:50:25.825Z,65.40
2023-05-08T09:52:53.317Z,64.40
2023-05-08T09:55:22.771Z,63.90
2023-05-08T09:57:56.635Z,62.90
2023-05-08T10:00:27.680Z,62.90
2023-05-08T10:02:57.904Z,62.60
2023-05-08T10:05:34.829Z,62.50
2023-05-08T10:08:23.925Z,62.30
2023-05-08T10:10:51.243Z,62.20
2023-05-08T10:13:19.847Z,61.80
2023-05-08T10:15:59.488Z,61.40
2023-05-08T10:21:15.159Z,60.50
2023-05-08T10:26:33.253Z,60.00
2023-05-08T10:29:07.350Z,59.90
2023-05-08T10:31:41.734Z,60.30
2023-05-08T10:34:14.775Z,59.20
2023-05-08T10:36:42.685Z,58.80
2023-05-08T10:39:11.906Z,58.50
2023-05-08T10:41:40.505Z,58.50
2023-05-08T10:44:10.445Z,58.10
2023-05-08T10:50:04.052Z,58.30
2023-05-08T10:52:37.065Z,57.70
2023-05-08T10:55:21.908Z,57.80
2023-05-08T10:58:05.795Z,57.80
2023-05-08T11:00:33.434Z,57.90
2023-05-08T11:03:08.553Z,58.00
2023-05-08T11:05:51.638Z,57.80
2023-05-08T11:08:19.451Z,57.20
2023-05-08T11:10:59.116Z,57.00
2023-05-08T11:13:29.170Z,56.60
2023-05-08T11:15:57.022Z,56.00
2023-05-08T11:18:25.068Z,55.90
2023-05-08T11:20:59.137Z,55.80
2023-05-08T11:23:26.872Z,56.00
2023-05-08T11:26:01.432Z,55.80
2023-05-08T11:28:32.161Z,55.40
2023-05-08T11:31:03.836Z,55.20
2023-05-08T11:33:31.725Z,54.90
2023-05-08T11:36:01.145Z,55.00
2023-05-08T11:38:33.018Z,55.40
2023-05-08T11:41:01.976Z,55.60
2023-05-08T11:43:44.566Z,55.40
2023-05-08T11:46:15.051Z,55.40
2023-05-08T11:48:42.071Z,55.70
2023-05-08T11:51:10.679Z,55.00
2023-05-08T11:53:37.932Z,54.60
2023-05-08T11:56:05.744Z,54.40
2023-05-08T11:58:32.500Z,54.20
2023-05-08T12:00:59.300Z,53.60
2023-05-08T12:03:26.242Z,53.40
2023-05-08T12:05:56.930Z,52.90
2023-05-08T12:08:25.648Z,52.80
2023-05-08T12:10:54.054Z,52.80
2023-05-08T12:13:22.325Z,52.90
2023-05-08T12:15:50.618Z,53.20
2023-05-08T12:18:17.814Z,52.70
2023-05-08T12:20:44.671Z,53.00
2023-05-08T12:23:11.839Z,53.10
2023-05-08T12:25:40.294Z,53.20
2023-05-08T12:28:07.633Z,52.80
2023-05-08T12:30:34.825Z,52.20
2023-05-08T12:33:02.205Z,51.90
2023-05-08T12:35:29.227Z,51.90
2023-05-08T12:38:01.366Z,52.00
2023-05-08T12:40:31.013Z,51.50
2023-05-08T12:43:01.611Z,51.00
2023-05-08T12:45:30.158Z,51.00
2023-05-08T12:48:00.119Z,50.50
2023-05-08T12:50:27.087Z,50.60
2023-05-08T12:52:54.123Z,50.20
2023-05-08T12:55:22.377Z,49.10
2023-05-08T12:57:49.267Z,48.80
2023-05-08T13:00:18.491Z,49.00
2023-05-08T13:02:52.861Z,49.20
2023-05-08T13:05:21.412Z,49.30
2023-05-08T13:07:48.677Z,49.30
2023-05-08T13:10:15.601Z,49.60
2023-05-08T13:12:42.696Z,50.00
2023-05-08T13:15:10.930Z,50.70
2023-05-08T13:17:39.126Z,51.00
2023-05-08T13:20:07.145Z,51.40
2023-05-08T13:22:33.948Z,51.60
2023-05-08T13:25:00.796Z,52.20
2023-05-08T13:27:27.548Z,53.00
2023-05-08T13:29:54.302Z,53.70
2023-05-08T13:32:21.240Z,54.30
2023-05-08T13:34:51.990Z,55.00
2023-05-08T13:37:20.881Z,55.10
2023-05-08T13:39:47.658Z,55.70
2023-05-08T13:42:14.417Z,55.50
2023-05-08T13:44:41.137Z,55.30
2023-05-08T13:47:08.501Z,55.10
2023-05-08T13:49:35.259Z,54.90
2023-05-08T13:52:03.652Z,54.70
2023-05-08T13:54:30.407Z,55.00
2023-05-08T13:56:57.232Z,55.00
2023-05-08T13:59:24.022Z,55.10
2023-05-08T14:01:50.894Z,55.40
2023-05-08T14:04:17.679Z,55.60
2023-05-08T14:06:44.622Z,56.00
2023-05-08T14:09:12.856Z,56.50
2023-05-08T14:11:39.604Z,56.70
2023-05-08T14:14:06.357Z,57.00
2023-05-08T14:16:33.327Z,57.50
2023-05-08T14:19:00.180Z,57.60
2023-05-08T14:21:27.014Z,57.50
2023-05-08T14:23:53.856Z,57.90
2023-05-08T14:26:21.967Z,58.30
2023-05-08T14:28:48.883Z,58.70
2023-05-08T14:31:15.769Z,58.60
2023-05-08T14:33:42.587Z,58.40
2023-05-08T14:36:09.835Z,58.20
2023-05-08T14:38:36.748Z,58.00
2023-05-08T14:41:04.901Z,58.10
2023-05-08T14:43:33.241Z,57.80
2023-05-08T14:46:00.083Z,57.90
2023-05-08T14:48:26.894Z,57.10
2023-05-08T14:50:53.747Z,57.00
2023-05-08T14:53:20.622Z,56.50
2023-05-08T14:55:47.785Z,56.40
2023-05-08T14:58:14.728Z,56.10
2023-05-08T15:00:42.858Z,56.30
2023-05-08T15:03:09.747Z,56.00
2023-05-08T15:05:36.634Z,56.40
2023-05-08T15:08:03.441Z,56.70
2023-05-08T15:10:30.350Z,57.00
2023-05-08T15:12:57.229Z,57.30
2023-05-08T15:15:24.078Z,57.50
2023-05-08T15:17:52.357Z,57.80
2023-05-08T15:20:19.426Z,58.00
2023-05-08T15:22:46.169Z,58.10
2023-05-08T15:25:13.422Z,58.10
2023-05-08T15:27:40.334Z,57.60
2023-05-08T15:30:08.280Z,57.00
2023-05-08T15:32:35.251Z,56.80
2023-05-08T15:35:03.751Z,56.20
2023-05-08T15:37:30.540Z,56.00
2023-05-08T15:39:57.332Z,55.40
2023-05-08T15:42:24.136Z,54.90
2023-05-08T15:44:55.296Z,54.00
2023-05-08T15:47:22.166Z,53.70
2023-05-08T15:49:49.027Z,53.20
2023-05-08T15:52:17.188Z,53.10
2023-05-08T15:54:44.059Z,53.00
2023-05-08T15:57:10.809Z,52.90
2023-05-08T15:59:37.575Z,52.30
2023-05-08T16:02:04.696Z,51.30
2023-05-08T16:04:31.836Z,49.70
2023-05-08T16:06:58.916Z,49.40
2023-05-08T16:09:27.094Z,49.00
2023-05-08T16:11:53.937Z,49.60
2023-05-08T16:14:20.695Z,49.60
2023-05-08T16:16:47.458Z,50.20
2023-05-08T16:19:14.250Z,51.20
2023-05-08T16:21:41.195Z,52.20
2023-05-08T16:24:08.020Z,52.60
2023-05-08T16:26:36.193Z,53.20
2023-05-08T16:29:02.959Z,54.40
2023-05-08T16:31:29.782Z,55.90
2023-05-08T16:33:56.581Z,57.20
2023-05-08T16:36:23.342Z,58.40
2023-05-08T16:38:50.147Z,58.80
2023-05-08T16:41:16.896Z,59.70
2023-05-08T16:43:45.081Z,60.40
2023-05-08T16:46:11.840Z,60.90
2023-05-08T16:48:38.627Z,61.80
2023-05-08T16:51:05.451Z,62.00
2023-05-08T16:53:32.204Z,62.80
2023-05-08T16:55:58.920Z,63.30
2023-05-08T16:58:25.717Z,63.90
2023-05-08T17:00:53.920Z,64.60
2023-05-08T17:03:20.880Z,64.70
2023-05-08T17:05:47.737Z,65.50
2023-05-08T17:08:14.520Z,66.10
2023-05-08T17:10:41.350Z,66.20
2023-05-08T17:13:08.158Z,67.00
2023-05-08T17:15:35.050Z,67.20
2023-05-08T17:18:03.378Z,67.80
2023-05-08T17:20:30.145Z,68.60
2023-05-08T17:22:56.917Z,68.90
2023-05-08T17:25:23.820Z,69.20
2023-05-08T17:27:50.562Z,69.30
2023-05-08T17:30:17.360Z,69.70
2023-05-08T17:32:44.182Z,70.00
2023-05-08T17:35:12.333Z,70.70
2023-05-08T17:37:39.107Z,71.30
2023-05-08T17:40:07.241Z,71.90
2023-05-08T17:42:33.970Z,72.00
2023-05-08T17:45:00.838Z,72.10
2023-05-08T17:47:27.734Z,72.50
2023-05-08T17:49:54.478Z,72.40
2023-05-08T17:52:22.591Z,72.70
2023-05-08T17:54:50.700Z,72.50
2023-05-08T17:57:17.493Z,72.30
2023-05-08T17:59:44.299Z,72.20
2023-05-08T18:02:11.073Z,71.90
2023-05-08T18:04:37.835Z,71.70
2023-05-08T18:07:04.672Z,71.70
2023-05-08T18:09:33.121Z,71.70
2023-05-08T18:11:59.853Z,71.70
2023-05-08T18:14:29.641Z,72.00
2023-05-08T18:16:56.397Z,72.20
2023-05-08T18:19:23.335Z,72.60
2023-05-08T18:21:50.174Z,73.10
2023-05-08T18:24:17.053Z,73.40
2023-05-08T18:26:46.532Z,73.90
2023-05-08T18:29:13.366Z,74.30
2023-05-08T18:31:40.301Z,74.80
2023-05-08T18:34:07.052Z,75.30
2023-05-08T18:36:33.876Z,76.30
2023-05-08T18:39:00.627Z,76.80
2023-05-08T18:41:27.436Z,77.40
2023-05-08T18:43:55.532Z,77.80
2023-05-08T18:46:22.366Z,78.20
2023-05-08T18:48:49.174Z,78.80
2023-05-08T18:51:15.924Z,79.30
2023-05-08T18:53:42.662Z,79.70
2023-05-08T18:56:09.483Z,79.80
2023-05-08T18:58:36.237Z,80.40
2023-05-08T19:01:04.497Z,80.70
2023-05-08T19:03:31.370Z,81.00
2023-05-08T19:05:58.281Z,81.20
2023-05-08T19:08:25.403Z,81.70
2023-05-08T19:10:52.201Z,82.10
2023-05-08T19:13:19.118Z,82.30
2023-05-08T19:15:45.940Z,82.80
2023-05-08T19:18:14.079Z,83.60
2023-05-08T19:20:40.832Z,83.10
2023-05-08T19:23:07.611Z,83.30
2023-05-08T19:25:34.358Z,83.50
2023-05-08T19:28:01.210Z,83.60
2023-05-08T19:30:27.993Z,83.90
2023-05-08T19:32:54.762Z,84.30
2023-05-08T19:35:23.050Z,84.60
2023-05-08T19:37:49.877Z,84.80
2023-05-08T19:40:16.902Z,85.00
2023-05-08T19:42:43.696Z,85.30
2023-05-08T19:45:11.808Z,85.40
2023-05-08T19:47:38.830Z,85.50
2023-05-08T19:50:06.761Z,85.80
2023-05-08T19:52:35.035Z,86.10
2023-05-08T19:55:01.816Z,86.70
2023-05-08T19:57:28.575Z,86.90
2023-05-08T19:59:55.398Z,87.30
2023-05-08T20:02:22.198Z,88.00
2023-05-08T20:05:14.214Z,88.20
2023-05-08T20:07:37.153Z,88.40
2023-05-08T20:10:04.494Z,88.70
2023-05-08T20:12:31.254Z,89.40
2023-05-08T20:14:58.060Z,89.50
2023-05-08T20:17:24.872Z,89.60
2023-05-08T20:19:51.682Z,89.70
2023-05-08T20:22:18.570Z,89.90
2023-05-08T20:24:46.662Z,90.00
2023-05-08T20:27:13.388Z,90.10
2023-05-08T20:29:40.189Z,90.20
2023-05-08T20:32:07.135Z,90.30
2023-05-08T20:34:34.153Z,90.40
2023-05-08T20:37:01.230Z,90.40
2023-05-08T20:39:28.110Z,90.40
2023-05-08T20:41:56.296Z,90.60
2023-05-08T20:44:23.014Z,90.70
2023-05-08T20:46:49.813Z,90.70
2023-05-08T20:49:16.585Z,90.70
2023-05-08T20:51:43.406Z,90.80
2023-05-08T20:54:10.153Z,91.00
2023-05-08T20:56:37.007Z,91.20
2023-05-08T20:59:05.121Z,91.40
2023-05-08T21:01:31.984Z,91.40
2023-05-08T21:03:58.803Z,91.60
2023-05-08T21:06:26.618Z,91.80
2023-05-08T21:08:53.422Z,91.90
2023-05-08T21:11:20.212Z,92.10
2023-05-08T21:13:47.009Z,92.40
2023-05-08T21:16:15.188Z,92.50
2023-05-08T21:18:41.958Z,92.70
2023-05-08T21:21:14.799Z,92.80
2023-05-08T21:23:41.568Z,92.90
2023-05-08T21:26:08.303Z,93.20
2023-05-08T21:28:35.027Z,93.30
2023-05-08T21:31:01.841Z,93.60
2023-05-08T21:33:30.002Z,93.90
2023-05-08T21:35:56.733Z,94.10
2023-05-08T21:38:23.496Z,94.40
2023-05-08T21:40:50.255Z,94.60
2023-05-08T21:43:17.041Z,94.90
2023-05-08T21:45:43.841Z,95.10
2023-05-08T21:48:10.601Z,95.30
2023-05-08T21:50:38.706Z,95.70
2023-05-08T21:53:05.462Z,96.30
2023-05-08T21:55:32.633Z,96.50
2023-05-08T21:57:59.413Z,96.70
2023-05-08T22:00:26.164Z,96.80
2023-05-08T22:02:52.949Z,96.90
2023-05-08T22:05:19.841Z,97.00
2023-05-08T22:07:47.983Z,97.20
2023-05-08T22:10:14.727Z,97.30
2023-05-08T22:12:41.481Z,97.40
2023-05-08T22:15:17.949Z,97.70
2023-05-08T22:17:48.764Z,97.90
2023-05-08T22:20:15.545Z,98.20
2023-05-08T22:22:42.567Z,98.30
2023-05-08T22:25:10.952Z,98.60
2023-05-08T22:27:37.731Z,98.70
2023-05-08T22:30:05.570Z,99.00
2023-05-08T22:32:32.311Z,99.10
2023-05-08T22:34:59.068Z,99.20
2023-05-08T22:37:26.031Z,99.20
2023-05-08T22:39:52.798Z,99.30
2023-05-08T22:42:20.929Z,99.60
2023-05-08T22:44:48.056Z,99.70
2023-05-08T22:47:15.009Z,99.80
2023-05-08T22:49:42.132Z,99.90
2023-05-08T22:52:09.436Z,99.90
2023-05-08T22:54:36.304Z,99.90
2023-05-08T22:57:03.160Z,99.90
2023-05-08T22:59:31.288Z,99.90
2023-05-08T23:01:58.196Z,99.90
2023-05-08T23:04:25.064Z,99.90
2023-05-08T23:06:51.897Z,99.90
2023-05-08T23:09:18.739Z,99.90
2023-05-08T23:11:45.490Z,99.90
2023-05-08T23:14:12.198Z,99.90
2023-05-08T23:16:40.386Z,99.90
2023-05-08T23:19:07.129Z,99.90
2023-05-08T23:21:33.967Z,99.90
2023-05-08T23:24:00.727Z,99.90
2023-05-08T23:26:27.513Z,99.90
2023-05-08T23:28:54.253Z,99.90
2023-05-08T23:31:21.089Z,99.90
2023-05-08T23:33:49.307Z,99.90
2023-05-08T23:36:16.034Z,99.90
2023-05-08T23:38:42.829Z,99.90
2023-05-08T23:41:09.819Z,99.90
2023-05-08T23:43:36.696Z,99.90
2023-05-08T23:46:03.576Z,99.90
2023-05-08T23:48:30.411Z,99.90
2023-05-08T23:50:58.726Z,99.90
2023-05-08T23:53:25.519Z,99.90
2023-05-08T23:55:52.260Z,99.90
2023-05-08T23:58:19.160Z,99.90
